sensor_id;sensor_type;location;lat;lon;timestamp;P1;durP1;ratioP1;P2;durP2;ratioP2
58681;SDS011;44460;40.162;18.294;2022-12-18T00:01:02;41.33;;;22.17;;
58681;SDS011;44460;40.162;18.294;2022-12-18T00:03:34;35.05;;;21.38;;
58681;SDS011;44460;40.162;18.294;2022-12-18T00:05:59;41.38;;;22.55;;
58681;SDS011;44460;40.162;18.294;2022-12-18T00:08:25;34.05;;;20.02;;
58681;SDS011;44460;40.162;18.294;2022-12-18T00:10:50;35.80;;;20.23;;
58681;SDS011;44460;40.162;18.294;2022-12-18T00:13:16;38.33;;;19.25;;
58681;SDS011;44460;40.162;18.294;2022-12-18T00:15:41;33.90;;;21.02;;
58681;SDS011;44460;40.162;18.294;2022-12-18T00:18:06;37.17;;;20.45;;
58681;SDS011;44460;40.162;18.294;2022-12-18T00:20:36;32.70;;;21.52;;
58681;SDS011;44460;40.162;18.294;2022-12-18T00:23:01;40.25;;;23.95;;
58681;SDS011;44460;40.162;18.294;2022-12-18T00:25:27;38.33;;;22.10;;
58681;SDS011;44460;40.162;18.294;2022-12-18T00:27:52;34.65;;;21.30;;
58681;SDS011;44460;40.162;18.294;2022-12-18T00:30:18;36.67;;;20.50;;
58681;SDS011;44460;40.162;18.294;2022-12-18T00:32:43;33.05;;;20.48;;
58681;SDS011;44460;40.162;18.294;2022-12-18T00:35:09;30.90;;;20.30;;
58681;SDS011;44460;40.162;18.294;2022-12-18T00:37:34;37.22;;;21.02;;
58681;SDS011;44460;40.162;18.294;2022-12-18T00:40:00;34.35;;;19.90;;
58681;SDS011;44460;40.162;18.294;2022-12-18T00:42:27;33.67;;;19.88;;
58681;SDS011;44460;40.162;18.294;2022-12-18T00:45:11;31.98;;;19.15;;
58681;SDS011;44460;40.162;18.294;2022-12-18T00:47:37;33.05;;;18.42;;
58681;SDS011;44460;40.162;18.294;2022-12-18T00:50:02;29.25;;;17.92;;
58681;SDS011;44460;40.162;18.294;2022-12-18T00:52:28;35.05;;;19.83;;
58681;SDS011;44460;40.162;18.294;2022-12-18T00:54:53;27.38;;;18.25;;
58681;SDS011;44460;40.162;18.294;2022-12-18T00:57:18;27.40;;;19.27;;
58681;SDS011;44460;40.162;18.294;2022-12-18T00:59:44;29.40;;;18.30;;
58681;SDS011;44460;40.162;18.294;2022-12-18T01:02:10;27.58;;;18.40;;
58681;SDS011;44460;40.162;18.294;2022-12-18T01:04:35;26.55;;;17.90;;
58681;SDS011;44460;40.162;18.294;2022-12-18T01:07:01;28.27;;;18.15;;
58681;SDS011;44460;40.162;18.294;2022-12-18T01:09:26;31.65;;;18.83;;
58681;SDS011;44460;40.162;18.294;2022-12-18T01:11:52;32.22;;;17.55;;
58681;SDS011;44460;40.162;18.294;2022-12-18T01:14:17;28.63;;;17.05;;
58681;SDS011;44460;40.162;18.294;2022-12-18T01:16:43;30.17;;;18.45;;
58681;SDS011;44460;40.162;18.294;2022-12-18T01:19:08;26.98;;;16.70;;
58681;SDS011;44460;40.162;18.294;2022-12-18T01:21:34;26.75;;;17.92;;
58681;SDS011;44460;40.162;18.294;2022-12-18T01:24:02;26.73;;;18.60;;
58681;SDS011;44460;40.162;18.294;2022-12-18T01:26:28;30.15;;;19.33;;
58681;SDS011;44460;40.162;18.294;2022-12-18T01:28:55;32.00;;;18.73;;
58681;SDS011;44460;40.162;18.294;2022-12-18T01:31:23;29.00;;;19.05;;
58681;SDS011;44460;40.162;18.294;2022-12-18T01:33:49;28.98;;;18.27;;
58681;SDS011;44460;40.162;18.294;2022-12-18T01:36:16;29.45;;;18.13;;
58681;SDS011;44460;40.162;18.294;2022-12-18T01:38:42;31.73;;;18.30;;
58681;SDS011;44460;40.162;18.294;2022-12-18T01:41:07;29.00;;;17.90;;
58681;SDS011;44460;40.162;18.294;2022-12-18T01:43:43;28.85;;;17.92;;
58681;SDS011;44460;40.162;18.294;2022-12-18T01:46:09;32.20;;;18.23;;
58681;SDS011;44460;40.162;18.294;2022-12-18T01:48:35;32.70;;;18.75;;
58681;SDS011;44460;40.162;18.294;2022-12-18T01:51:01;29.00;;;17.73;;
58681;SDS011;44460;40.162;18.294;2022-12-18T01:53:26;24.67;;;17.63;;
58681;SDS011;44460;40.162;18.294;2022-12-18T01:55:52;27.75;;;16.92;;
58681;SDS011;44460;40.162;18.294;2022-12-18T01:58:19;27.67;;;16.73;;
58681;SDS011;44460;40.162;18.294;2022-12-18T02:00:48;25.73;;;15.32;;
58681;SDS011;44460;40.162;18.294;2022-12-18T02:03:13;26.48;;;15.98;;
58681;SDS011;44460;40.162;18.294;2022-12-18T02:14:17;25.13;;;13.77;;
58681;SDS011;44460;40.162;18.294;2022-12-18T02:16:19;24.05;;;12.98;;
58681;SDS011;44460;40.162;18.294;2022-12-18T02:18:47;20.85;;;13.40;;
58681;SDS011;44460;40.162;18.294;2022-12-18T02:31:21;31.52;;;18.73;;
58681;SDS011;44460;40.162;18.294;2022-12-18T02:33:47;30.63;;;18.58;;
58681;SDS011;44460;40.162;18.294;2022-12-18T02:36:14;31.85;;;20.17;;
58681;SDS011;44460;40.162;18.294;2022-12-18T02:41:11;32.28;;;19.20;;
58681;SDS011;44460;40.162;18.294;2022-12-18T02:43:38;30.40;;;19.77;;
58681;SDS011;44460;40.162;18.294;2022-12-18T02:46:27;34.60;;;21.52;;
58681;SDS011;44460;40.162;18.294;2022-12-18T02:48:52;35.60;;;20.75;;
58681;SDS011;44460;40.162;18.294;2022-12-18T02:51:25;38.90;;;24.55;;
58681;SDS011;44460;40.162;18.294;2022-12-18T02:53:58;34.65;;;22.85;;
58681;SDS011;44460;40.162;18.294;2022-12-18T02:56:29;32.65;;;21.63;;
58681;SDS011;44460;40.162;18.294;2022-12-18T02:59:00;31.15;;;20.95;;
58681;SDS011;44460;40.162;18.294;2022-12-18T03:04:14;31.55;;;19.30;;
58681;SDS011;44460;40.162;18.294;2022-12-18T03:06:43;29.58;;;18.05;;
58681;SDS011;44460;40.162;18.294;2022-12-18T03:09:14;23.73;;;14.52;;
58681;SDS011;44460;40.162;18.294;2022-12-18T03:11:41;24.63;;;14.27;;
58681;SDS011;44460;40.162;18.294;2022-12-18T03:14:26;26.83;;;15.57;;
58681;SDS011;44460;40.162;18.294;2022-12-18T03:16:55;27.42;;;14.63;;
58681;SDS011;44460;40.162;18.294;2022-12-18T03:19:24;27.05;;;14.73;;
58681;SDS011;44460;40.162;18.294;2022-12-18T03:21:51;21.27;;;12.82;;
58681;SDS011;44460;40.162;18.294;2022-12-18T03:24:18;22.98;;;12.70;;
58681;SDS011;44460;40.162;18.294;2022-12-18T03:26:46;20.20;;;13.13;;
58681;SDS011;44460;40.162;18.294;2022-12-18T03:29:27;32.20;;;13.07;;
58681;SDS011;44460;40.162;18.294;2022-12-18T03:31:58;25.30;;;13.23;;
58681;SDS011;44460;40.162;18.294;2022-12-18T03:34:29;21.42;;;13.02;;
58681;SDS011;44460;40.162;18.294;2022-12-18T03:36:58;25.23;;;13.45;;
58681;SDS011;44460;40.162;18.294;2022-12-18T03:39:23;25.15;;;13.00;;
58681;SDS011;44460;40.162;18.294;2022-12-18T03:44:55;25.60;;;14.68;;
58681;SDS011;44460;40.162;18.294;2022-12-18T03:47:31;24.17;;;13.88;;
58681;SDS011;44460;40.162;18.294;2022-12-18T03:52:36;22.70;;;12.98;;
58681;SDS011;44460;40.162;18.294;2022-12-18T03:55:03;24.50;;;13.38;;
58681;SDS011;44460;40.162;18.294;2022-12-18T03:57:30;21.60;;;12.95;;
58681;SDS011;44460;40.162;18.294;2022-12-18T03:59:58;25.13;;;13.38;;
58681;SDS011;44460;40.162;18.294;2022-12-18T04:02:28;22.38;;;13.00;;
58681;SDS011;44460;40.162;18.294;2022-12-18T04:04:58;22.42;;;13.75;;
58681;SDS011;44460;40.162;18.294;2022-12-18T04:07:26;25.45;;;13.40;;
58681;SDS011;44460;40.162;18.294;2022-12-18T04:09:52;24.08;;;13.15;;
58681;SDS011;44460;40.162;18.294;2022-12-18T04:12:23;19.55;;;11.60;;
58681;SDS011;44460;40.162;18.294;2022-12-18T04:14:49;20.45;;;12.05;;
58681;SDS011;44460;40.162;18.294;2022-12-18T04:17:15;21.67;;;11.68;;
58681;SDS011;44460;40.162;18.294;2022-12-18T04:19:41;23.80;;;12.55;;
58681;SDS011;44460;40.162;18.294;2022-12-18T04:22:08;22.73;;;11.38;;
58681;SDS011;44460;40.162;18.294;2022-12-18T04:24:39;19.67;;;10.32;;
58681;SDS011;44460;40.162;18.294;2022-12-18T04:27:15;20.17;;;10.18;;
58681;SDS011;44460;40.162;18.294;2022-12-18T04:29:45;22.35;;;11.85;;
58681;SDS011;44460;40.162;18.294;2022-12-18T04:32:11;19.77;;;12.23;;
58681;SDS011;44460;40.162;18.294;2022-12-18T04:34:37;21.85;;;11.70;;
58681;SDS011;44460;40.162;18.294;2022-12-18T04:37:03;19.83;;;11.32;;
58681;SDS011;44460;40.162;18.294;2022-12-18T04:39:29;23.55;;;13.13;;
58681;SDS011;44460;40.162;18.294;2022-12-18T04:41:59;18.63;;;11.68;;
58681;SDS011;44460;40.162;18.294;2022-12-18T04:44:24;22.05;;;10.43;;
58681;SDS011;44460;40.162;18.294;2022-12-18T04:46:50;19.92;;;10.73;;
58681;SDS011;44460;40.162;18.294;2022-12-18T04:49:15;18.33;;;9.55;;
58681;SDS011;44460;40.162;18.294;2022-12-18T04:51:41;18.67;;;9.98;;
58681;SDS011;44460;40.162;18.294;2022-12-18T04:54:06;15.82;;;9.38;;
58681;SDS011;44460;40.162;18.294;2022-12-18T04:56:31;23.20;;;9.93;;
58681;SDS011;44460;40.162;18.294;2022-12-18T04:58:57;19.17;;;10.65;;
58681;SDS011;44460;40.162;18.294;2022-12-18T05:01:22;17.05;;;9.88;;
58681;SDS011;44460;40.162;18.294;2022-12-18T05:03:48;15.60;;;9.77;;
58681;SDS011;44460;40.162;18.294;2022-12-18T05:06:13;12.77;;;8.52;;
58681;SDS011;44460;40.162;18.294;2022-12-18T05:08:39;18.13;;;8.50;;
58681;SDS011;44460;40.162;18.294;2022-12-18T05:11:06;15.38;;;8.50;;
58681;SDS011;44460;40.162;18.294;2022-12-18T05:13:32;15.75;;;7.32;;
58681;SDS011;44460;40.162;18.294;2022-12-18T05:15:57;13.80;;;7.85;;
58681;SDS011;44460;40.162;18.294;2022-12-18T05:18:23;15.73;;;7.88;;
58681;SDS011;44460;40.162;18.294;2022-12-18T05:20:49;16.77;;;8.38;;
58681;SDS011;44460;40.162;18.294;2022-12-18T05:23:15;17.40;;;9.02;;
58681;SDS011;44460;40.162;18.294;2022-12-18T05:25:40;15.93;;;8.40;;
58681;SDS011;44460;40.162;18.294;2022-12-18T05:28:06;13.48;;;7.60;;
58681;SDS011;44460;40.162;18.294;2022-12-18T05:30:31;16.58;;;8.15;;
58681;SDS011;44460;40.162;18.294;2022-12-18T05:32:56;12.23;;;7.15;;
58681;SDS011;44460;40.162;18.294;2022-12-18T05:35:22;13.82;;;6.95;;
58681;SDS011;44460;40.162;18.294;2022-12-18T05:37:47;12.52;;;7.47;;
58681;SDS011;44460;40.162;18.294;2022-12-18T05:40:13;13.38;;;6.97;;
58681;SDS011;44460;40.162;18.294;2022-12-18T05:42:38;10.57;;;6.05;;
58681;SDS011;44460;40.162;18.294;2022-12-18T05:45:04;11.75;;;6.93;;
58681;SDS011;44460;40.162;18.294;2022-12-18T05:47:30;13.15;;;7.30;;
58681;SDS011;44460;40.162;18.294;2022-12-18T05:49:55;13.27;;;6.57;;
58681;SDS011;44460;40.162;18.294;2022-12-18T05:52:21;13.52;;;6.65;;
58681;SDS011;44460;40.162;18.294;2022-12-18T05:54:46;15.80;;;6.40;;
58681;SDS011;44460;40.162;18.294;2022-12-18T05:57:12;13.73;;;7.10;;
58681;SDS011;44460;40.162;18.294;2022-12-18T05:59:37;16.25;;;6.50;;
58681;SDS011;44460;40.162;18.294;2022-12-18T06:02:02;13.18;;;6.43;;
58681;SDS011;44460;40.162;18.294;2022-12-18T06:04:28;14.77;;;6.45;;
58681;SDS011;44460;40.162;18.294;2022-12-18T06:06:54;12.75;;;6.07;;
58681;SDS011;44460;40.162;18.294;2022-12-18T06:09:19;14.60;;;6.20;;
58681;SDS011;44460;40.162;18.294;2022-12-18T06:11:45;12.85;;;5.85;;
58681;SDS011;44460;40.162;18.294;2022-12-18T06:14:10;16.77;;;6.57;;
58681;SDS011;44460;40.162;18.294;2022-12-18T06:16:36;12.45;;;5.95;;
58681;SDS011;44460;40.162;18.294;2022-12-18T06:19:02;12.45;;;6.13;;
58681;SDS011;44460;40.162;18.294;2022-12-18T06:21:29;12.98;;;6.75;;
58681;SDS011;44460;40.162;18.294;2022-12-18T06:23:54;11.60;;;5.35;;
58681;SDS011;44460;40.162;18.294;2022-12-18T06:26:20;11.43;;;5.45;;
58681;SDS011;44460;40.162;18.294;2022-12-18T06:28:45;13.70;;;5.00;;
58681;SDS011;44460;40.162;18.294;2022-12-18T06:31:11;11.65;;;5.70;;
58681;SDS011;44460;40.162;18.294;2022-12-18T06:33:37;11.60;;;5.45;;
58681;SDS011;44460;40.162;18.294;2022-12-18T06:36:04;11.52;;;5.57;;
58681;SDS011;44460;40.162;18.294;2022-12-18T06:38:31;13.07;;;5.63;;
58681;SDS011;44460;40.162;18.294;2022-12-18T06:40:56;12.50;;;5.05;;
58681;SDS011;44460;40.162;18.294;2022-12-18T06:43:21;10.07;;;5.43;;
58681;SDS011;44460;40.162;18.294;2022-12-18T06:45:47;16.15;;;6.50;;
58681;SDS011;44460;40.162;18.294;2022-12-18T06:48:20;14.85;;;5.90;;
58681;SDS011;44460;40.162;18.294;2022-12-18T06:50:45;18.77;;;6.53;;
58681;SDS011;44460;40.162;18.294;2022-12-18T06:53:11;16.52;;;5.47;;
58681;SDS011;44460;40.162;18.294;2022-12-18T06:55:36;17.00;;;5.72;;
58681;SDS011;44460;40.162;18.294;2022-12-18T06:58:02;17.02;;;5.55;;
58681;SDS011;44460;40.162;18.294;2022-12-18T07:00:27;13.73;;;5.10;;
58681;SDS011;44460;40.162;18.294;2022-12-18T07:02:53;12.07;;;5.25;;
58681;SDS011;44460;40.162;18.294;2022-12-18T07:05:18;13.50;;;5.50;;
58681;SDS011;44460;40.162;18.294;2022-12-18T07:07:43;11.93;;;4.97;;
58681;SDS011;44460;40.162;18.294;2022-12-18T07:10:09;15.27;;;6.03;;
58681;SDS011;44460;40.162;18.294;2022-12-18T07:12:35;14.20;;;5.82;;
58681;SDS011;44460;40.162;18.294;2022-12-18T07:15:00;11.05;;;4.95;;
58681;SDS011;44460;40.162;18.294;2022-12-18T07:17:26;19.13;;;6.55;;
58681;SDS011;44460;40.162;18.294;2022-12-18T07:19:51;12.40;;;5.18;;
58681;SDS011;44460;40.162;18.294;2022-12-18T07:22:16;11.13;;;5.18;;
58681;SDS011;44460;40.162;18.294;2022-12-18T07:24:42;14.82;;;5.70;;
58681;SDS011;44460;40.162;18.294;2022-12-18T07:27:07;11.00;;;5.05;;
58681;SDS011;44460;40.162;18.294;2022-12-18T07:29:33;15.93;;;5.45;;
58681;SDS011;44460;40.162;18.294;2022-12-18T07:31:58;12.80;;;5.43;;
58681;SDS011;44460;40.162;18.294;2022-12-18T07:34:24;16.73;;;5.97;;
58681;SDS011;44460;40.162;18.294;2022-12-18T07:36:49;15.10;;;5.38;;
58681;SDS011;44460;40.162;18.294;2022-12-18T07:39:14;13.93;;;6.20;;
58681;SDS011;44460;40.162;18.294;2022-12-18T07:41:40;16.80;;;6.28;;
58681;SDS011;44460;40.162;18.294;2022-12-18T07:44:11;13.55;;;5.53;;
58681;SDS011;44460;40.162;18.294;2022-12-18T07:46:37;16.25;;;5.20;;
58681;SDS011;44460;40.162;18.294;2022-12-18T07:49:02;14.63;;;5.95;;
58681;SDS011;44460;40.162;18.294;2022-12-18T07:51:28;13.18;;;5.50;;
58681;SDS011;44460;40.162;18.294;2022-12-18T07:53:53;14.57;;;5.43;;
58681;SDS011;44460;40.162;18.294;2022-12-18T07:56:19;17.75;;;6.50;;
58681;SDS011;44460;40.162;18.294;2022-12-18T07:58:44;23.70;;;6.78;;
58681;SDS011;44460;40.162;18.294;2022-12-18T08:01:10;20.02;;;7.43;;
58681;SDS011;44460;40.162;18.294;2022-12-18T08:03:37;13.15;;;5.80;;
58681;SDS011;44460;40.162;18.294;2022-12-18T08:06:04;17.65;;;6.78;;
58681;SDS011;44460;40.162;18.294;2022-12-18T08:08:30;16.17;;;6.22;;
58681;SDS011;44460;40.162;18.294;2022-12-18T08:10:55;19.30;;;7.93;;
58681;SDS011;44460;40.162;18.294;2022-12-18T08:13:21;15.75;;;5.80;;
58681;SDS011;44460;40.162;18.294;2022-12-18T08:15:54;14.90;;;6.22;;
58681;SDS011;44460;40.162;18.294;2022-12-18T08:18:20;15.43;;;6.55;;
58681;SDS011;44460;40.162;18.294;2022-12-18T08:20:45;24.75;;;9.60;;
58681;SDS011;44460;40.162;18.294;2022-12-18T08:23:11;22.25;;;7.15;;
58681;SDS011;44460;40.162;18.294;2022-12-18T08:25:36;14.52;;;6.53;;
58681;SDS011;44460;40.162;18.294;2022-12-18T08:28:02;30.35;;;10.10;;
58681;SDS011;44460;40.162;18.294;2022-12-18T08:30:27;12.40;;;5.68;;
58681;SDS011;44460;40.162;18.294;2022-12-18T08:32:53;12.85;;;6.38;;
58681;SDS011;44460;40.162;18.294;2022-12-18T08:35:19;16.27;;;6.53;;
58681;SDS011;44460;40.162;18.294;2022-12-18T08:37:44;19.52;;;6.30;;
58681;SDS011;44460;40.162;18.294;2022-12-18T08:40:10;13.73;;;5.63;;
58681;SDS011;44460;40.162;18.294;2022-12-18T08:42:35;14.10;;;5.22;;
58681;SDS011;44460;40.162;18.294;2022-12-18T08:45:19;18.08;;;5.28;;
58681;SDS011;44460;40.162;18.294;2022-12-18T08:47:44;18.67;;;4.65;;
58681;SDS011;44460;40.162;18.294;2022-12-18T08:50:10;13.60;;;5.63;;
58681;SDS011;44460;40.162;18.294;2022-12-18T08:52:37;14.85;;;5.07;;
58681;SDS011;44460;40.162;18.294;2022-12-18T08:55:02;13.88;;;4.53;;
58681;SDS011;44460;40.162;18.294;2022-12-18T08:57:27;14.95;;;3.90;;
58681;SDS011;44460;40.162;18.294;2022-12-18T08:59:53;11.40;;;4.20;;
58681;SDS011;44460;40.162;18.294;2022-12-18T09:02:18;15.18;;;4.55;;
58681;SDS011;44460;40.162;18.294;2022-12-18T09:04:46;12.65;;;3.67;;
58681;SDS011;44460;40.162;18.294;2022-12-18T09:07:12;12.85;;;3.85;;
58681;SDS011;44460;40.162;18.294;2022-12-18T09:09:38;9.63;;;3.67;;
58681;SDS011;44460;40.162;18.294;2022-12-18T09:12:03;17.23;;;5.03;;
58681;SDS011;44460;40.162;18.294;2022-12-18T09:14:29;14.18;;;3.63;;
58681;SDS011;44460;40.162;18.294;2022-12-18T09:16:54;11.52;;;3.70;;
58681;SDS011;44460;40.162;18.294;2022-12-18T09:19:20;20.15;;;4.65;;
58681;SDS011;44460;40.162;18.294;2022-12-18T09:21:45;14.25;;;4.18;;
58681;SDS011;44460;40.162;18.294;2022-12-18T09:24:14;11.02;;;3.92;;
58681;SDS011;44460;40.162;18.294;2022-12-18T09:26:39;14.15;;;3.97;;
58681;SDS011;44460;40.162;18.294;2022-12-18T09:29:05;15.57;;;3.92;;
58681;SDS011;44460;40.162;18.294;2022-12-18T09:31:32;12.83;;;3.50;;
58681;SDS011;44460;40.162;18.294;2022-12-18T09:33:58;20.45;;;4.15;;
58681;SDS011;44460;40.162;18.294;2022-12-18T09:36:23;12.73;;;3.40;;
58681;SDS011;44460;40.162;18.294;2022-12-18T09:38:51;13.10;;;3.65;;
58681;SDS011;44460;40.162;18.294;2022-12-18T09:43:47;11.10;;;3.40;;
58681;SDS011;44460;40.162;18.294;2022-12-18T09:46:57;16.20;;;3.97;;
58681;SDS011;44460;40.162;18.294;2022-12-18T09:49:02;11.23;;;3.20;;
58681;SDS011;44460;40.162;18.294;2022-12-18T09:51:32;17.50;;;3.05;;
58681;SDS011;44460;40.162;18.294;2022-12-18T09:54:03;17.10;;;3.72;;
58681;SDS011;44460;40.162;18.294;2022-12-18T09:56:31;15.15;;;7.40;;
58681;SDS011;44460;40.162;18.294;2022-12-18T09:59:00;16.70;;;6.95;;
58681;SDS011;44460;40.162;18.294;2022-12-18T10:01:26;14.10;;;4.70;;
58681;SDS011;44460;40.162;18.294;2022-12-18T10:03:52;15.93;;;4.78;;
58681;SDS011;44460;40.162;18.294;2022-12-18T10:09:01;15.73;;;4.75;;
58681;SDS011;44460;40.162;18.294;2022-12-18T10:17:07;7.47;;;2.63;;
58681;SDS011;44460;40.162;18.294;2022-12-18T10:19:44;9.57;;;3.03;;
58681;SDS011;44460;40.162;18.294;2022-12-18T10:25:00;8.87;;;5.00;;
58681;SDS011;44460;40.162;18.294;2022-12-18T10:27:26;10.32;;;3.13;;
58681;SDS011;44460;40.162;18.294;2022-12-18T10:29:52;8.50;;;3.20;;
58681;SDS011;44460;40.162;18.294;2022-12-18T10:32:19;13.90;;;4.60;;
58681;SDS011;44460;40.162;18.294;2022-12-18T10:34:48;8.88;;;3.33;;
58681;SDS011;44460;40.162;18.294;2022-12-18T10:37:15;13.63;;;3.15;;
58681;SDS011;44460;40.162;18.294;2022-12-18T10:39:41;13.00;;;2.83;;
58681;SDS011;44460;40.162;18.294;2022-12-18T10:42:11;16.27;;;3.42;;
58681;SDS011;44460;40.162;18.294;2022-12-18T10:44:38;12.00;;;4.22;;
58681;SDS011;44460;40.162;18.294;2022-12-18T10:47:05;8.80;;;2.78;;
58681;SDS011;44460;40.162;18.294;2022-12-18T10:49:32;11.27;;;3.17;;
58681;SDS011;44460;40.162;18.294;2022-12-18T10:52:05;9.90;;;2.88;;
58681;SDS011;44460;40.162;18.294;2022-12-18T10:54:31;10.63;;;3.58;;
58681;SDS011;44460;40.162;18.294;2022-12-18T10:57:13;10.75;;;3.53;;
58681;SDS011;44460;40.162;18.294;2022-12-18T10:59:55;9.52;;;2.78;;
58681;SDS011;44460;40.162;18.294;2022-12-18T11:02:28;11.90;;;4.40;;
58681;SDS011;44460;40.162;18.294;2022-12-18T11:04:58;23.25;;;11.63;;
58681;SDS011;44460;40.162;18.294;2022-12-18T11:07:23;8.80;;;2.97;;
58681;SDS011;44460;40.162;18.294;2022-12-18T11:09:59;10.45;;;3.45;;
58681;SDS011;44460;40.162;18.294;2022-12-18T11:12:28;9.30;;;2.97;;
58681;SDS011;44460;40.162;18.294;2022-12-18T11:14:54;9.85;;;3.92;;
58681;SDS011;44460;40.162;18.294;2022-12-18T11:17:25;31.48;;;19.25;;
58681;SDS011;44460;40.162;18.294;2022-12-18T11:19:53;25.15;;;16.02;;
58681;SDS011;44460;40.162;18.294;2022-12-18T11:22:20;22.92;;;11.85;;
58681;SDS011;44460;40.162;18.294;2022-12-18T11:25:19;12.82;;;5.93;;
58681;SDS011;44460;40.162;18.294;2022-12-18T11:27:38;15.43;;;7.70;;
58681;SDS011;44460;40.162;18.294;2022-12-18T11:30:08;12.57;;;6.80;;
58681;SDS011;44460;40.162;18.294;2022-12-18T11:32:38;15.82;;;7.25;;
58681;SDS011;44460;40.162;18.294;2022-12-18T11:35:10;17.75;;;7.95;;
58681;SDS011;44460;40.162;18.294;2022-12-18T11:37:38;14.18;;;5.30;;
58681;SDS011;44460;40.162;18.294;2022-12-18T11:40:16;16.83;;;5.03;;
58681;SDS011;44460;40.162;18.294;2022-12-18T11:42:53;11.95;;;3.80;;
58681;SDS011;44460;40.162;18.294;2022-12-18T11:45:23;13.82;;;3.25;;
58681;SDS011;44460;40.162;18.294;2022-12-18T11:52:49;8.02;;;2.70;;
58681;SDS011;44460;40.162;18.294;2022-12-18T11:55:19;12.38;;;4.25;;
58681;SDS011;44460;40.162;18.294;2022-12-18T12:00:32;9.82;;;3.30;;
58681;SDS011;44460;40.162;18.294;2022-12-18T12:03:07;15.80;;;4.55;;
58681;SDS011;44460;40.162;18.294;2022-12-18T12:11:11;14.93;;;6.35;;
58681;SDS011;44460;40.162;18.294;2022-12-18T12:21:13;16.35;;;7.40;;
58681;SDS011;44460;40.162;18.294;2022-12-18T12:32:04;6.97;;;2.30;;
58681;SDS011;44460;40.162;18.294;2022-12-18T12:39:44;8.50;;;2.40;;
58681;SDS011;44460;40.162;18.294;2022-12-18T12:42:14;12.07;;;3.30;;
58681;SDS011;44460;40.162;18.294;2022-12-18T12:44:58;7.93;;;2.75;;
58681;SDS011;44460;40.162;18.294;2022-12-18T12:47:25;9.77;;;2.53;;
58681;SDS011;44460;40.162;18.294;2022-12-18T12:49:52;8.43;;;2.30;;
58681;SDS011;44460;40.162;18.294;2022-12-18T12:53:01;11.93;;;3.15;;
58681;SDS011;44460;40.162;18.294;2022-12-18T12:55:17;7.40;;;2.40;;
58681;SDS011;44460;40.162;18.294;2022-12-18T12:57:45;8.07;;;2.33;;
58681;SDS011;44460;40.162;18.294;2022-12-18T13:05:04;14.15;;;2.80;;
58681;SDS011;44460;40.162;18.294;2022-12-18T13:07:35;10.23;;;2.60;;
58681;SDS011;44460;40.162;18.294;2022-12-18T13:10:13;10.93;;;2.95;;
58681;SDS011;44460;40.162;18.294;2022-12-18T13:12:56;11.13;;;2.80;;
58681;SDS011;44460;40.162;18.294;2022-12-18T13:18:26;9.02;;;2.83;;
58681;SDS011;44460;40.162;18.294;2022-12-18T13:20:46;24.33;;;8.00;;
58681;SDS011;44460;40.162;18.294;2022-12-18T13:25:51;9.93;;;3.43;;
58681;SDS011;44460;40.162;18.294;2022-12-18T13:28:17;11.10;;;3.65;;
58681;SDS011;44460;40.162;18.294;2022-12-18T13:30:48;10.57;;;3.35;;
58681;SDS011;44460;40.162;18.294;2022-12-18T13:40:55;14.93;;;3.50;;
58681;SDS011;44460;40.162;18.294;2022-12-18T13:48:25;12.35;;;3.17;;
58681;SDS011;44460;40.162;18.294;2022-12-18T13:51:06;12.70;;;2.78;;
58681;SDS011;44460;40.162;18.294;2022-12-18T13:53:38;13.30;;;4.00;;
58681;SDS011;44460;40.162;18.294;2022-12-18T13:56:04;9.93;;;2.58;;
58681;SDS011;44460;40.162;18.294;2022-12-18T13:58:30;9.45;;;2.50;;
58681;SDS011;44460;40.162;18.294;2022-12-18T14:00:56;9.48;;;2.55;;
58681;SDS011;44460;40.162;18.294;2022-12-18T14:03:25;8.48;;;2.67;;
58681;SDS011;44460;40.162;18.294;2022-12-18T14:05:58;9.80;;;2.63;;
58681;SDS011;44460;40.162;18.294;2022-12-18T14:08:24;10.25;;;3.10;;
58681;SDS011;44460;40.162;18.294;2022-12-18T14:10:51;12.95;;;2.95;;
58681;SDS011;44460;40.162;18.294;2022-12-18T14:13:24;11.48;;;3.10;;
58681;SDS011;44460;40.162;18.294;2022-12-18T14:15:53;13.50;;;4.07;;
58681;SDS011;44460;40.162;18.294;2022-12-18T14:19:01;9.15;;;2.80;;
58681;SDS011;44460;40.162;18.294;2022-12-18T14:21:14;10.65;;;2.72;;
58681;SDS011;44460;40.162;18.294;2022-12-18T14:23:42;12.70;;;4.18;;
58681;SDS011;44460;40.162;18.294;2022-12-18T14:26:24;10.60;;;3.50;;
58681;SDS011;44460;40.162;18.294;2022-12-18T14:28:53;14.02;;;5.50;;
58681;SDS011;44460;40.162;18.294;2022-12-18T14:31:23;19.13;;;6.20;;
58681;SDS011;44460;40.162;18.294;2022-12-18T14:33:49;10.23;;;3.22;;
58681;SDS011;44460;40.162;18.294;2022-12-18T14:36:18;14.10;;;3.75;;
58681;SDS011;44460;40.162;18.294;2022-12-18T14:38:47;8.82;;;3.78;;
58681;SDS011;44460;40.162;18.294;2022-12-18T14:41:13;10.50;;;3.10;;
58681;SDS011;44460;40.162;18.294;2022-12-18T14:43:41;14.75;;;4.28;;
58681;SDS011;44460;40.162;18.294;2022-12-18T14:48:50;11.63;;;3.83;;
58681;SDS011;44460;40.162;18.294;2022-12-18T14:51:23;13.82;;;4.68;;
58681;SDS011;44460;40.162;18.294;2022-12-18T14:53:53;10.82;;;3.63;;
58681;SDS011;44460;40.162;18.294;2022-12-18T14:58:50;15.30;;;3.85;;
58681;SDS011;44460;40.162;18.294;2022-12-18T15:01:23;17.40;;;5.10;;
58681;SDS011;44460;40.162;18.294;2022-12-18T15:03:50;14.20;;;6.28;;
58681;SDS011;44460;40.162;18.294;2022-12-18T15:06:29;10.82;;;4.15;;
58681;SDS011;44460;40.162;18.294;2022-12-18T15:08:55;19.48;;;5.78;;
58681;SDS011;44460;40.162;18.294;2022-12-18T15:11:27;17.40;;;4.82;;
58681;SDS011;44460;40.162;18.294;2022-12-18T15:13:53;18.17;;;6.05;;
58681;SDS011;44460;40.162;18.294;2022-12-18T15:16:18;12.25;;;4.38;;
58681;SDS011;44460;40.162;18.294;2022-12-18T15:18:44;14.57;;;4.40;;
58681;SDS011;44460;40.162;18.294;2022-12-18T15:21:11;9.60;;;3.30;;
58681;SDS011;44460;40.162;18.294;2022-12-18T15:23:47;9.88;;;3.80;;
58681;SDS011;44460;40.162;18.294;2022-12-18T15:26:14;8.90;;;2.80;;
58681;SDS011;44460;40.162;18.294;2022-12-18T15:28:50;16.63;;;4.47;;
58681;SDS011;44460;40.162;18.294;2022-12-18T15:33:42;10.35;;;2.90;;
58681;SDS011;44460;40.162;18.294;2022-12-18T15:36:10;13.60;;;4.43;;
58681;SDS011;44460;40.162;18.294;2022-12-18T15:38:35;12.00;;;4.00;;
58681;SDS011;44460;40.162;18.294;2022-12-18T15:41:01;9.10;;;2.90;;
58681;SDS011;44460;40.162;18.294;2022-12-18T15:43:27;8.25;;;2.63;;
58681;SDS011;44460;40.162;18.294;2022-12-18T15:45:59;16.25;;;5.70;;
58681;SDS011;44460;40.162;18.294;2022-12-18T15:48:25;16.65;;;5.15;;
58681;SDS011;44460;40.162;18.294;2022-12-18T15:50:50;10.48;;;3.63;;
58681;SDS011;44460;40.162;18.294;2022-12-18T15:53:17;7.88;;;3.25;;
58681;SDS011;44460;40.162;18.294;2022-12-18T15:55:42;11.65;;;3.47;;
58681;SDS011;44460;40.162;18.294;2022-12-18T15:58:26;12.45;;;3.58;;
58681;SDS011;44460;40.162;18.294;2022-12-18T16:00:52;15.85;;;5.90;;
58681;SDS011;44460;40.162;18.294;2022-12-18T16:03:18;11.88;;;4.88;;
58681;SDS011;44460;40.162;18.294;2022-12-18T16:05:43;12.77;;;6.03;;
58681;SDS011;44460;40.162;18.294;2022-12-18T16:08:08;8.80;;;3.45;;
58681;SDS011;44460;40.162;18.294;2022-12-18T16:10:34;10.35;;;3.45;;